Time;durP1;ratioP1;P1;durP2;ratioP2;P2;SDS_P1;SDS_P2;PMS_P1;PMS_P2;Temp;Humidity;BMP_temperature;BMP_pressure;BME280_temperature;BME280_humidity;BME280_pressure;Samples;Min_cycle;Max_cycle;Signal;HPM_P1;HPM_P2
2023/09/28 00:00:35;;;;;;;12.10;10.68;;;17.60;99.90;;;;;;4966666;28;20404;-74
2023/09/28 00:02:43;;;;;;;11.45;10.27;;;17.60;99.90;;;;;;5000411;28;20049;-73
2023/09/28 00:05:10;;;;;;;12.38;10.82;;;17.60;99.90;;;;;;4998815;28;20041;-74
2023/09/28 00:07:36;;;;;;;11.60;10.50;;;17.50;99.90;;;;;;4983616;28;20042;-74
2023/09/28 00:10:03;;;;;;;12.02;10.82;;;17.50;99.90;;;;;;5001898;28;20096;-74
2023/09/28 00:12:29;;;;;;;12.93;11.30;;;17.50;99.90;;;;;;4984777;28;20038;-73
2023/09/28 00:14:54;;;;;;;11.55;10.43;;;17.50;99.90;;;;;;4984390;28;20037;-73
2023/09/28 00:17:20;;;;;;;12.68;10.05;;;17.50;99.90;;;;;;4968224;28;20050;-73
2023/09/28 00:19:46;;;;;;;11.27;10.23;;;17.50;99.90;;;;;;4984641;28;20049;-74
2023/09/28 00:22:12;;;;;;;11.82;10.32;;;17.40;99.90;;;;;;4997129;28;20038;-73
2023/09/28 00:24:37;;;;;;;11.55;9.93;;;17.40;99.90;;;;;;4997973;28;20046;-74
2023/09/28 00:27:04;;;;;;;11.13;10.02;;;17.40;99.90;;;;;;4954238;28;20070;-73
2023/09/28 00:29:30;;;;;;;10.88;9.82;;;17.40;99.90;;;;;;4981824;28;20133;-74
2023/09/28 00:31:55;;;;;;;10.38;9.43;;;17.40;99.90;;;;;;5001212;28;20136;-73
2023/09/28 00:34:21;;;;;;;13.20;10.82;;;17.40;99.90;;;;;;4950221;28;20049;-73
2023/09/28 00:36:47;;;;;;;11.30;10.00;;;17.40;99.90;;;;;;4982545;28;21213;-73
2023/09/28 00:39:13;;;;;;;11.35;10.27;;;17.40;99.90;;;;;;4999653;28;20093;-73
2023/09/28 00:41:38;;;;;;;11.93;10.73;;;17.40;99.90;;;;;;4984960;28;20390;-73
2023/09/28 00:44:04;;;;;;;11.82;10.63;;;17.40;99.90;;;;;;4986101;28;20592;-73
2023/09/28 00:46:35;;;;;;;13.73;11.13;;;17.30;99.90;;;;;;4969127;28;20061;-73
2023/09/28 00:49:05;;;;;;;11.25;10.15;;;17.30;99.90;;;;;;5002283;28;20042;-73
2023/09/28 00:51:33;;;;;;;11.38;10.27;;;17.30;99.90;;;;;;4987465;28;20396;-73
2023/09/28 00:54:17;;;;;;;12.40;11.20;;;17.30;99.90;;;;;;5001503;28;20046;-73
2023/09/28 00:56:44;;;;;;;12.75;10.82;;;17.30;99.90;;;;;;4974031;28;20433;-73
2023/09/28 00:59:10;;;;;;;11.80;10.70;;;17.30;99.90;;;;;;5005323;28;20120;-73
2023/09/28 01:01:36;;;;;;;13.50;10.30;;;17.30;99.90;;;;;;4986680;28;20073;-73
2023/09/28 01:04:05;;;;;;;10.80;9.32;;;17.30;99.90;;;;;;4984233;28;20119;-73
2023/09/28 01:06:33;;;;;;;11.38;10.27;;;17.30;99.90;;;;;;4969135;28;20034;-73
2023/09/28 01:08:59;;;;;;;11.20;10.10;;;17.30;99.90;;;;;;5004515;28;20057;-73
2023/09/28 01:11:24;;;;;;;10.30;9.40;;;17.20;99.90;;;;;;4986158;28;20131;-73
2023/09/28 01:13:52;;;;;;;12.15;9.65;;;17.20;99.90;;;;;;4984079;28;20038;-73
2023/09/28 01:16:19;;;;;;;11.02;9.95;;;17.20;99.90;;;;;;5004087;28;20034;-73
2023/09/28 01:18:45;;;;;;;11.23;10.13;;;17.20;99.90;;;;;;4984342;28;20641;-73
2023/09/28 01:21:11;;;;;;;10.65;9.55;;;17.20;99.90;;;;;;4987665;28;20046;-73
2023/09/28 01:23:37;;;;;;;11.13;9.88;;;17.20;99.90;;;;;;4982103;28;20044;-73
2023/09/28 01:26:03;;;;;;;11.10;9.95;;;17.10;99.90;;;;;;4989990;28;20477;-73
2023/09/28 01:28:29;;;;;;;10.55;9.48;;;17.10;99.90;;;;;;4986302;28;20033;-73
2023/09/28 01:30:55;;;;;;;11.38;9.23;;;17.10;99.90;;;;;;4986133;28;20054;-73
2023/09/28 01:33:20;;;;;;;10.10;8.70;;;17.10;99.90;;;;;;5003845;28;20046;-73
2023/09/28 01:35:46;;;;;;;9.20;8.30;;;17.10;99.90;;;;;;4983126;28;20134;-73
2023/09/28 01:38:31;;;;;;;10.18;8.60;;;17.10;99.90;;;;;;4987032;28;20067;-73
2023/09/28 01:40:57;;;;;;;9.20;8.25;;;17.10;99.90;;;;;;5001127;28;20041;-73
2023/09/28 01:43:22;;;;;;;10.82;8.63;;;17.10;99.90;;;;;;5003544;28;20060;-73
2023/09/28 01:45:49;;;;;;;11.63;7.85;;;17.10;99.90;;;;;;4968318;28;20038;-73
2023/09/28 01:48:15;;;;;;;8.57;7.75;;;17.10;99.90;;;;;;4984211;28;20038;-73
2023/09/28 01:50:41;;;;;;;9.52;7.95;;;17.10;99.90;;;;;;5001544;28;20041;-73
2023/09/28 01:53:06;;;;;;;10.20;8.00;;;17.10;99.90;;;;;;5001207;28;20034;-73
2023/09/28 01:55:32;;;;;;;8.48;7.50;;;17.10;99.90;;;;;;4984508;28;20497;-73
2023/09/28 01:57:59;;;;;;;8.35;7.55;;;17.20;99.90;;;;;;4985673;28;20034;-73
2023/09/28 02:00:25;;;;;;;9.43;8.18;;;17.10;99.90;;;;;;4983555;28;20045;-73
2023/09/28 02:02:58;;;;;;;9.88;7.45;;;17.20;99.90;;;;;;4987139;28;20042;-73
2023/09/28 02:05:31;;;;;;;7.50;6.70;;;17.20;99.90;;;;;;5002395;28;20034;-73
2023/09/28 02:07:57;;;;;;;8.45;6.70;;;17.30;99.90;;;;;;4999484;28;20096;-73
2023/09/28 02:10:23;;;;;;;7.47;6.75;;;17.30;99.90;;;;;;5000382;28;20034;-73
2023/09/28 02:12:50;;;;;;;8.25;6.40;;;17.30;99.90;;;;;;4970696;28;20037;-73
2023/09/28 02:15:16;;;;;;;6.70;6.10;;;17.40;99.90;;;;;;4999870;28;20049;-73
2023/09/28 02:17:46;;;;;;;7.75;6.35;;;17.40;99.90;;;;;;4987650;28;20045;-73
2023/09/28 02:20:15;;;;;;;8.00;6.45;;;17.40;99.90;;;;;;5000247;28;20100;-73
2023/09/28 02:22:46;;;;;;;6.40;5.78;;;17.50;99.90;;;;;;4981349;28;20093;-73
2023/09/28 02:25:20;;;;;;;7.47;5.80;;;17.50;99.90;;;;;;5001115;28;20509;-73
2023/09/28 02:27:47;;;;;;;6.70;6.03;;;17.60;99.90;;;;;;4984173;28;20142;-73
2023/09/28 02:30:17;;;;;;;6.72;6.03;;;17.60;99.90;;;;;;5000515;28;20104;-73
2023/09/28 02:32:43;;;;;;;6.57;5.78;;;17.60;99.90;;;;;;4967454;28;20042;-73
2023/09/28 02:35:11;;;;;;;6.60;5.90;;;17.50;99.90;;;;;;4984775;28;20046;-73
2023/09/28 02:37:37;;;;;;;7.32;6.00;;;17.50;99.90;;;;;;4985963;28;20041;-73
2023/09/28 02:40:05;;;;;;;7.95;6.22;;;17.50;99.90;;;;;;4985983;28;20096;-73
2023/09/28 02:42:32;;;;;;;8.93;5.82;;;17.50;99.90;;;;;;4982234;28;20038;-73
2023/09/28 02:44:58;;;;;;;6.95;5.90;;;17.50;99.90;;;;;;4969651;28;20072;-73
2023/09/28 02:47:24;;;;;;;7.05;6.32;;;17.50;99.90;;;;;;4999631;28;20042;-73
2023/09/28 02:49:51;;;;;;;11.50;6.97;;;17.50;99.90;;;;;;4982674;28;20563;-74
2023/09/28 02:52:17;;;;;;;7.72;6.68;;;17.40;99.90;;;;;;4981929;28;20505;-73
2023/09/28 02:54:43;;;;;;;8.02;6.28;;;17.40;99.90;;;;;;4987236;28;20081;-73
2023/09/28 02:57:09;;;;;;;8.02;6.55;;;17.40;99.90;;;;;;4982579;28;20045;-73
2023/09/28 02:59:36;;;;;;;9.40;6.68;;;17.40;99.90;;;;;;5003831;28;20037;-73
2023/09/28 03:02:03;;;;;;;8.27;6.13;;;17.40;99.90;;;;;;4968436;28;20108;-73
2023/09/28 03:04:31;;;;;;;15.35;6.50;;;17.40;99.90;;;;;;4985042;28;20050;-73
2023/09/28 03:06:57;;;;;;;7.80;6.80;;;17.40;99.90;;;;;;4984541;28;20049;-73
2023/09/28 03:09:23;;;;;;;8.02;7.05;;;17.40;99.90;;;;;;4983320;28;20050;-73
2023/09/28 03:11:49;;;;;;;8.75;7.18;;;17.40;99.90;;;;;;4999761;28;20038;-73
2023/09/28 03:14:15;;;;;;;8.93;6.60;;;17.30;99.90;;;;;;5002409;28;20046;-73
2023/09/28 03:16:41;;;;;;;11.68;7.40;;;17.30;99.90;;;;;;4969933;28;20064;-73
2023/09/28 03:19:08;;;;;;;7.90;6.65;;;17.30;99.90;;;;;;4967576;28;20041;-73
2023/09/28 03:21:35;;;;;;;9.48;7.57;;;17.30;99.90;;;;;;4983714;28;20057;-73
2023/09/28 03:24:01;;;;;;;9.75;7.32;;;17.30;99.90;;;;;;4986557;28;20381;-73
2023/09/28 03:26:30;;;;;;;7.63;6.68;;;17.20;99.90;;;;;;5000444;28;20030;-73
2023/09/28 03:28:57;;;;;;;7.35;6.65;;;17.20;99.90;;;;;;4997396;28;20062;-73
2023/09/28 03:31:27;;;;;;;8.98;7.18;;;17.20;99.90;;;;;;5002825;28;20132;-73
2023/09/28 03:33:56;;;;;;;9.02;7.25;;;17.20;99.90;;;;;;4997767;28;20042;-73
2023/09/28 03:36:22;;;;;;;13.10;6.90;;;17.10;99.90;;;;;;4985427;28;20267;-73
2023/09/28 03:38:48;;;;;;;9.38;7.05;;;17.10;99.90;;;;;;4988046;28;20073;-73
2023/09/28 03:41:14;;;;;;;8.50;6.97;;;17.10;99.90;;;;;;4999381;28;20123;-73
2023/09/28 03:43:42;;;;;;;9.68;6.90;;;17.00;99.90;;;;;;4982117;28;20501;-73
2023/09/28 03:46:08;;;;;;;8.98;6.75;;;17.10;99.90;;;;;;4998169;28;20042;-73
2023/09/28 03:48:35;;;;;;;8.52;6.85;;;17.10;99.90;;;;;;4983017;28;20048;-73
2023/09/28 03:51:01;;;;;;;7.60;6.80;;;17.10;99.90;;;;;;4984102;28;20116;-73
2023/09/28 03:53:27;;;;;;;10.45;6.97;;;17.10;99.90;;;;;;4985487;28;20121;-73
2023/09/28 03:55:52;;;;;;;9.23;6.95;;;17.00;99.90;;;;;;4983141;28;20184;-73
2023/09/28 03:58:18;;;;;;;8.55;7.18;;;17.00;99.90;;;;;;4999381;28;20111;-73
2023/09/28 04:00:44;;;;;;;9.93;6.90;;;17.00;99.90;;;;;;4998891;28;20049;-73
2023/09/28 04:03:11;;;;;;;7.43;6.68;;;17.00;99.90;;;;;;4969793;28;20048;-73
2023/09/28 04:05:37;;;;;;;10.02;6.78;;;16.90;99.90;;;;;;4966877;28;20076;-73
2023/09/28 04:08:04;;;;;;;9.77;7.03;;;16.90;99.90;;;;;;4988326;28;20042;-73
2023/09/28 04:10:31;;;;;;;8.15;7.30;;;16.90;99.90;;;;;;5008457;28;20121;-73
2023/09/28 04:12:57;;;;;;;9.43;7.28;;;16.90;99.90;;;;;;5003412;28;20048;-73
2023/09/28 04:15:23;;;;;;;9.88;7.15;;;16.90;99.90;;;;;;4973916;28;20133;-73
2023/09/28 04:17:49;;;;;;;11.73;6.70;;;16.90;99.90;;;;;;4989536;28;20041;-73
2023/09/28 04:20:14;;;;;;;10.00;7.40;;;16.80;99.90;;;;;;4987599;28;20494;-73
2023/09/28 04:22:40;;;;;;;8.10;7.13;;;16.80;99.90;;;;;;4990941;28;20034;-73
2023/09/28 04:25:07;;;;;;;8.95;7.53;;;16.80;99.90;;;;;;4980154;28;20092;-73
2023/09/28 04:27:32;;;;;;;7.60;6.90;;;16.70;99.90;;;;;;4996939;28;20081;-73
2023/09/28 04:29:58;;;;;;;10.00;7.63;;;16.70;99.90;;;;;;5006193;28;20078;-73
2023/09/28 04:32:24;;;;;;;10.13;6.95;;;16.70;99.90;;;;;;4985942;28;20547;-73
2023/09/28 04:34:50;;;;;;;9.00;8.10;;;16.60;99.90;;;;;;4979341;28;20049;-73
2023/09/28 04:37:19;;;;;;;8.50;7.47;;;16.60;99.90;;;;;;4983524;28;20061;-73
2023/09/28 04:39:45;;;;;;;9.40;7.82;;;16.60;99.90;;;;;;4985557;28;20045;-73
2023/09/28 04:42:12;;;;;;;9.70;8.20;;;16.60;99.90;;;;;;4985355;28;20073;-73
2023/09/28 04:44:39;;;;;;;9.70;8.05;;;16.60;99.90;;;;;;5013154;28;20123;-73
2023/09/28 04:47:05;;;;;;;9.07;7.45;;;16.60;99.90;;;;;;4996179;28;20512;-73
2023/09/28 04:49:30;;;;;;;11.57;8.27;;;16.60;99.90;;;;;;4988806;28;20034;-73
2023/09/28 04:51:56;;;;;;;8.85;7.80;;;16.60;99.90;;;;;;4996174;28;20042;-73
2023/09/28 04:54:22;;;;;;;11.88;8.18;;;16.60;99.90;;;;;;5005239;28;20049;-73
2023/09/28 04:56:47;;;;;;;12.88;8.60;;;16.60;99.90;;;;;;4997028;28;20077;-73
2023/09/28 04:59:13;;;;;;;12.15;8.73;;;16.60;99.90;;;;;;5011117;28;20279;-73
2023/09/28 05:01:39;;;;;;;11.20;8.50;;;16.60;99.90;;;;;;4994308;28;20115;-73
2023/09/28 05:04:05;;;;;;;10.75;8.90;;;16.60;99.90;;;;;;4974833;28;20049;-73
2023/09/28 05:06:30;;;;;;;10.70;9.55;;;16.60;99.90;;;;;;4984351;28;20092;-73
2023/09/28 05:08:56;;;;;;;10.85;8.80;;;16.60;99.90;;;;;;4984701;28;20577;-73
2023/09/28 05:11:22;;;;;;;10.48;8.90;;;16.60;99.90;;;;;;5003318;28;20039;-73
2023/09/28 05:13:48;;;;;;;12.45;9.48;;;16.60;99.90;;;;;;4973524;28;20097;-73
2023/09/28 05:16:13;;;;;;;11.55;8.25;;;16.60;99.90;;;;;;5003222;28;20072;-73
2023/09/28 05:18:39;;;;;;;11.55;8.82;;;16.50;99.90;;;;;;5003420;28;20042;-73
2023/09/28 05:21:05;;;;;;;9.57;8.57;;;16.60;99.90;;;;;;4970311;28;20554;-73
2023/09/28 05:23:31;;;;;;;12.48;8.23;;;16.60;99.90;;;;;;4987298;28;20042;-73
2023/09/28 05:25:56;;;;;;;11.57;8.45;;;16.50;99.90;;;;;;5002432;28;20038;-73
2023/09/28 05:28:22;;;;;;;10.98;8.65;;;16.50;99.90;;;;;;4971256;28;20049;-73
2023/09/28 05:30:48;;;;;;;12.98;8.93;;;16.50;99.90;;;;;;5003719;28;20057;-73
2023/09/28 05:33:14;;;;;;;11.35;8.38;;;16.50;99.90;;;;;;4956067;28;20042;-73
2023/09/28 05:35:40;;;;;;;13.88;9.02;;;16.40;99.90;;;;;;4987036;28;20038;-73
2023/09/28 05:38:06;;;;;;;13.50;9.80;;;16.40;99.90;;;;;;4971286;28;20496;-73
2023/09/28 05:40:32;;;;;;;12.23;8.85;;;16.30;99.90;;;;;;5001624;28;20049;-73
2023/09/28 05:42:57;;;;;;;10.00;8.82;;;16.30;99.90;;;;;;5003629;28;20457;-73
2023/09/28 05:45:23;;;;;;;10.70;8.13;;;16.30;99.90;;;;;;4987341;28;20116;-73
2023/09/28 05:47:49;;;;;;;13.13;9.43;;;16.30;99.90;;;;;;4984654;28;20069;-73
2023/09/28 05:50:15;;;;;;;12.32;8.93;;;16.30;99.90;;;;;;4983823;28;20041;-73
2023/09/28 05:52:41;;;;;;;11.70;8.27;;;16.20;99.90;;;;;;4986376;28;20061;-73
2023/09/28 05:55:07;;;;;;;9.48;7.20;;;16.20;99.90;;;;;;4969922;28;20074;-73
2023/09/28 05:57:33;;;;;;;10.98;7.82;;;16.30;99.90;;;;;;4987198;28;20532;-73
2023/09/28 05:59:59;;;;;;;11.77;7.65;;;16.30;99.90;;;;;;4970040;28;20069;-75
2023/09/28 06:02:25;;;;;;;8.48;6.60;;;16.40;99.90;;;;;;5001648;28;20132;-75
2023/09/28 06:04:51;;;;;;;11.55;7.53;;;16.40;99.90;;;;;;4986838;28;20080;-75
2023/09/28 06:07:17;;;;;;;10.65;7.38;;;16.40;99.90;;;;;;4985960;28;20185;-75
2023/09/28 06:09:42;;;;;;;11.48;7.38;;;16.40;99.90;;;;;;5005325;28;20561;-75
2023/09/28 06:12:08;;;;;;;11.50;7.68;;;16.40;99.90;;;;;;4970637;28;20133;-75
2023/09/28 06:14:35;;;;;;;9.00;7.40;;;16.40;99.90;;;;;;5000033;28;20505;-75
2023/09/28 06:17:00;;;;;;;9.43;7.13;;;16.40;99.90;;;;;;5001247;28;20042;-75
2023/09/28 06:19:27;;;;;;;8.57;6.68;;;16.40;99.90;;;;;;4983190;28;20046;-73
2023/09/28 06:21:54;;;;;;;10.38;6.80;;;16.40;99.90;;;;;;4999986;28;20156;-73
2023/09/28 06:24:20;;;;;;;9.82;7.40;;;16.50;99.90;;;;;;4987484;28;20084;-76
2023/09/28 06:26:46;;;;;;;11.80;7.57;;;16.50;99.90;;;;;;4987547;28;20073;-73
2023/09/28 06:29:11;;;;;;;10.98;7.20;;;16.50;99.90;;;;;;4984993;28;20042;-73
2023/09/28 06:31:38;;;;;;;13.18;7.35;;;16.50;99.90;;;;;;5001897;28;20042;-73
2023/09/28 06:34:04;;;;;;;12.82;8.05;;;16.50;99.90;;;;;;4987057;28;20413;-73
2023/09/28 06:36:30;;;;;;;10.85;6.88;;;16.50;99.90;;;;;;4984069;28;20041;-73
2023/09/28 06:38:55;;;;;;;15.43;7.05;;;16.50;99.90;;;;;;5001153;28;20092;-73
2023/09/28 06:41:21;;;;;;;9.55;7.07;;;16.50;99.90;;;;;;4970178;28;20030;-73
2023/09/28 06:43:50;;;;;;;10.70;6.72;;;16.50;99.90;;;;;;4967769;28;20061;-73
2023/09/28 06:46:15;;;;;;;9.40;6.43;;;16.50;99.90;;;;;;5000117;28;20038;-73
2023/09/28 06:48:41;;;;;;;11.95;6.80;;;16.50;99.90;;;;;;5000686;28;20041;-73
2023/09/28 06:51:07;;;;;;;14.18;6.93;;;16.50;99.90;;;;;;4998973;28;20648;-73
2023/09/28 06:53:33;;;;;;;12.63;7.05;;;16.50;99.90;;;;;;5003156;28;20416;-73
2023/09/28 06:56:02;;;;;;;10.45;6.40;;;16.50;99.90;;;;;;4982136;28;20065;-73
2023/09/28 06:58:28;;;;;;;12.95;6.50;;;16.50;99.90;;;;;;4957240;28;20078;-73
2023/09/28 07:00:53;;;;;;;17.75;6.82;;;16.50;99.90;;;;;;4979976;28;20131;-73
2023/09/28 07:03:20;;;;;;;15.23;6.90;;;16.50;99.90;;;;;;4983754;28;20663;-73
2023/09/28 07:05:46;;;;;;;17.98;6.93;;;16.50;99.90;;;;;;4982019;28;20104;-73
2023/09/28 07:08:12;;;;;;;15.20;6.15;;;16.60;99.90;;;;;;4966239;28;20038;-73
2023/09/28 07:10:38;;;;;;;13.38;6.03;;;16.60;99.90;;;;;;4965827;28;20049;-73
2023/09/28 07:13:06;;;;;;;15.13;7.18;;;16.60;99.90;;;;;;4983169;28;20038;-74
2023/09/28 07:15:40;;;;;;;12.98;6.13;;;16.60;99.90;;;;;;4958308;28;20392;-73
2023/09/28 07:18:06;;;;;;;16.90;6.53;;;16.60;99.90;;;;;;4983163;28;20042;-73
2023/09/28 07:20:32;;;;;;;16.45;6.90;;;16.60;99.90;;;;;;4965873;28;20049;-73
2023/09/28 07:22:58;;;;;;;17.58;6.55;;;16.70;99.90;;;;;;4965984;28;20072;-73
2023/09/28 07:25:27;;;;;;;16.90;6.50;;;16.70;99.90;;;;;;4980046;28;20520;-73
2023/09/28 07:27:53;;;;;;;15.30;6.13;;;16.70;99.90;;;;;;4965862;28;20053;-73
2023/09/28 07:30:20;;;;;;;18.88;6.20;;;16.70;99.90;;;;;;4964977;28;20055;-72
2023/09/28 07:32:47;;;;;;;19.17;7.05;;;16.80;99.90;;;;;;4982512;28;20127;-73
2023/09/28 07:35:17;;;;;;;19.40;6.50;;;16.80;99.90;;;;;;4969267;28;20074;-73
2023/09/28 07:37:44;;;;;;;18.10;6.32;;;16.80;99.90;;;;;;4982656;28;20082;-73
2023/09/28 07:40:12;;;;;;;19.88;6.38;;;16.90;99.90;;;;;;4969313;28;20753;-74
2023/09/28 07:42:43;;;;;;;22.15;6.45;;;16.90;99.90;;;;;;4978038;28;20042;-73
2023/09/28 07:45:09;;;;;;;19.50;5.95;;;16.90;99.90;;;;;;5003710;28;20046;-73
2023/09/28 07:47:35;;;;;;;23.45;6.55;;;16.90;99.90;;;;;;4994531;28;20119;-73
2023/09/28 07:50:01;;;;;;;21.60;6.68;;;16.90;99.90;;;;;;4982558;28;20135;-73
2023/09/28 07:52:27;;;;;;;24.02;6.63;;;17.00;99.90;;;;;;4976152;28;20038;-73
2023/09/28 07:54:52;;;;;;;21.33;6.50;;;17.00;99.90;;;;;;4975116;28;20038;-73
2023/09/28 07:57:18;;;;;;;19.13;6.82;;;17.10;99.90;;;;;;4982251;28;20428;-73
2023/09/28 07:59:44;;;;;;;19.13;6.78;;;17.10;99.90;;;;;;4986901;28;20056;-73
2023/09/28 08:02:11;;;;;;;17.15;6.40;;;17.20;99.90;;;;;;5004440;28;20398;-73
2023/09/28 08:04:36;;;;;;;15.88;6.57;;;17.30;99.90;;;;;;4980805;28;20046;-73
2023/09/28 08:07:03;;;;;;;17.50;6.75;;;17.30;99.90;;;;;;5010795;28;20040;-73
2023/09/28 08:09:30;;;;;;;23.42;6.70;;;17.40;99.90;;;;;;4993161;28;20085;-73
2023/09/28 08:11:55;;;;;;;22.00;6.57;;;17.40;99.90;;;;;;4978316;28;20069;-73
2023/09/28 08:14:22;;;;;;;22.05;6.78;;;17.60;99.90;;;;;;4998897;28;20493;-73
2023/09/28 08:16:48;;;;;;;18.50;6.05;;;17.80;99.90;;;;;;4995552;28;20046;-73
2023/09/28 08:19:14;;;;;;;22.52;6.88;;;18.00;99.90;;;;;;4991245;28;20049;-73
2023/09/28 08:21:41;;;;;;;21.38;7.03;;;18.20;99.90;;;;;;4994358;28;20034;-73
2023/09/28 08:24:08;;;;;;;22.45;5.70;;;18.20;99.90;;;;;;4985442;28;20053;-74
2023/09/28 08:26:37;;;;;;;19.58;6.40;;;18.30;99.90;;;;;;4991325;28;20116;-73
2023/09/28 08:29:03;;;;;;;21.60;6.53;;;18.30;99.90;;;;;;4988762;28;20118;-73
2023/09/28 08:31:31;;;;;;;19.83;5.50;;;18.30;99.90;;;;;;4977300;28;20129;-73
2023/09/28 08:33:59;;;;;;;24.13;6.97;;;18.30;99.90;;;;;;4998602;28;20034;-73
2023/09/28 08:36:28;;;;;;;19.38;5.82;;;18.30;99.90;;;;;;4986270;28;20122;-73
2023/09/28 08:38:54;;;;;;;17.88;6.32;;;18.40;99.90;;;;;;4999741;28;20497;-73
2023/09/28 08:41:43;;;;;;;18.92;5.70;;;18.40;99.90;;;;;;4994231;28;20459;-73
2023/09/28 08:44:10;;;;;;;21.67;6.68;;;18.50;99.90;;;;;;4990673;28;20038;-73
2023/09/28 08:46:38;;;;;;;17.10;5.90;;;18.50;99.90;;;;;;4999428;28;20042;-73
2023/09/28 08:49:08;;;;;;;15.65;6.43;;;18.40;99.90;;;;;;4972243;28;20042;-73
2023/09/28 08:51:40;;;;;;;24.23;6.45;;;18.40;99.90;;;;;;4987166;28;20096;-73
2023/09/28 08:54:06;;;;;;;22.30;6.68;;;18.40;99.90;;;;;;4983541;28;20041;-73
2023/09/28 08:56:35;;;;;;;19.73;6.18;;;18.40;99.90;;;;;;5020876;28;20038;-73
2023/09/28 08:59:03;;;;;;;23.98;6.30;;;18.40;99.90;;;;;;5019679;28;20486;-73
2023/09/28 09:01:31;;;;;;;21.83;6.32;;;18.40;99.90;;;;;;5006946;28;20037;-73
2023/09/28 09:03:57;;;;;;;25.50;8.15;;;18.40;99.90;;;;;;5004218;28;20041;-73
2023/09/28 09:06:24;;;;;;;21.98;6.20;;;18.50;99.90;;;;;;5000082;28;20070;-74
2023/09/28 09:08:50;;;;;;;18.25;6.55;;;18.40;99.90;;;;;;4997649;28;20100;-73
2023/09/28 09:11:17;;;;;;;17.95;5.63;;;18.50;99.90;;;;;;4998740;28;20038;-73
2023/09/28 09:13:50;;;;;;;21.83;5.28;;;18.50;99.90;;;;;;4985257;28;20061;-73
2023/09/28 09:16:16;;;;;;;21.35;5.72;;;18.50;99.90;;;;;;4986521;28;20045;-73
2023/09/28 09:18:42;;;;;;;24.25;6.80;;;18.50;99.90;;;;;;4990139;28;20045;-73
2023/09/28 09:21:08;;;;;;;22.10;5.93;;;18.60;99.90;;;;;;4995742;28;20069;-73
2023/09/28 09:23:34;;;;;;;27.23;6.47;;;18.70;99.90;;;;;;4979352;28;20504;-73
2023/09/28 09:25:59;;;;;;;20.55;6.32;;;18.70;99.90;;;;;;5013307;28;20460;-73
2023/09/28 09:28:37;;;;;;;21.70;6.38;;;18.80;99.90;;;;;;4980126;28;20034;-73
2023/09/28 09:31:03;;;;;;;29.27;6.68;;;18.80;99.90;;;;;;5003130;28;20112;-74
2023/09/28 09:33:29;;;;;;;21.48;5.95;;;18.80;99.90;;;;;;4981461;28;20484;-74
2023/09/28 09:35:54;;;;;;;21.10;5.85;;;18.70;99.90;;;;;;4997060;28;20517;-74
2023/09/28 09:38:28;;;;;;;16.85;6.30;;;18.90;99.90;;;;;;5006731;28;20038;-73
2023/09/28 09:41:01;;;;;;;19.55;5.93;;;18.90;99.90;;;;;;4996684;28;20497;-74
2023/09/28 09:43:35;;;;;;;17.73;6.20;;;18.90;99.90;;;;;;4985153;28;20416;-73
2023/09/28 09:46:08;;;;;;;20.77;5.60;;;18.90;99.90;;;;;;4985786;28;20077;-74
2023/09/28 09:48:43;;;;;;;22.70;6.72;;;18.90;99.90;;;;;;4984209;28;20088;-73
2023/09/28 09:51:16;;;;;;;26.13;6.13;;;18.90;99.90;;;;;;5001801;28;20046;-73
2023/09/28 09:53:43;;;;;;;24.90;6.78;;;18.90;99.90;;;;;;4984791;28;20402;-74
2023/09/28 09:56:10;;;;;;;20.92;5.57;;;18.90;99.90;;;;;;4999610;28;20057;-74
2023/09/28 09:58:39;;;;;;;23.05;6.40;;;18.90;99.90;;;;;;4986207;28;20042;-73
2023/09/28 10:01:12;;;;;;;25.05;6.53;;;18.90;99.90;;;;;;4986753;28;20052;-74
2023/09/28 10:03:50;;;;;;;22.27;6.20;;;19.00;99.90;;;;;;4986011;28;20038;-74
2023/09/28 10:06:19;;;;;;;26.25;6.88;;;19.00;99.90;;;;;;4986929;28;20052;-73
2023/09/28 10:08:46;;;;;;;25.80;6.50;;;19.10;99.90;;;;;;4967778;28;20522;-73
2023/09/28 10:11:13;;;;;;;25.83;6.18;;;19.10;99.90;;;;;;4970380;28;20164;-74
2023/09/28 10:13:42;;;;;;;22.75;6.43;;;19.10;99.90;;;;;;4985923;28;20046;-73
2023/09/28 10:16:12;;;;;;;23.67;6.35;;;19.00;99.90;;;;;;4999877;28;20523;-73
2023/09/28 10:18:43;;;;;;;19.08;5.82;;;19.00;99.90;;;;;;5007965;28;20044;-73
2023/09/28 10:21:09;;;;;;;21.70;6.05;;;19.00;99.90;;;;;;5000904;28;20051;-73
2023/09/28 10:23:35;;;;;;;22.17;6.43;;;19.00;99.90;;;;;;4987470;28;20121;-73
2023/09/28 10:26:12;;;;;;;30.65;6.45;;;19.00;99.90;;;;;;5006445;28;20056;-74
2023/09/28 10:29:01;;;;;;;23.63;6.47;;;19.20;99.90;;;;;;4991941;28;20034;-73
2023/09/28 10:31:32;;;;;;;16.10;5.32;;;19.60;99.90;;;;;;5007664;28;20508;-74
2023/09/28 10:34:05;;;;;;;33.67;6.50;;;19.80;99.90;;;;;;5015244;28;20100;-74
2023/09/28 10:36:33;;;;;;;21.02;6.00;;;19.80;99.90;;;;;;5005092;28;20493;-73
2023/09/28 10:39:15;;;;;;;19.00;5.15;;;19.80;99.90;;;;;;4999432;28;20045;-74
2023/09/28 10:41:46;;;;;;;21.00;6.30;;;19.80;99.90;;;;;;4963502;28;20082;-74
2023/09/28 10:44:20;;;;;;;22.23;5.47;;;19.80;99.90;;;;;;4965917;28;20133;-74
2023/09/28 10:46:48;;;;;;;22.20;5.22;;;19.90;99.90;;;;;;4983970;28;20046;-73
2023/09/28 10:49:32;;;;;;;20.70;6.18;;;19.90;99.90;;;;;;4981684;28;20800;-74
2023/09/28 10:51:58;;;;;;;24.67;5.47;;;20.10;99.90;;;;;;4981009;28;20046;-75
2023/09/28 10:54:24;;;;;;;20.75;5.45;;;20.30;99.90;;;;;;4966964;28;20521;-74
2023/09/28 10:56:53;;;;;;;25.27;5.88;;;20.50;99.90;;;;;;4967889;28;20580;-74
2023/09/28 10:59:20;;;;;;;20.95;5.82;;;20.60;99.90;;;;;;4966920;28;20106;-76
2023/09/28 11:01:46;;;;;;;25.08;6.18;;;20.60;99.90;;;;;;4960741;28;20068;-75
2023/09/28 11:04:13;;;;;;;22.85;5.63;;;20.50;99.90;;;;;;4965739;28;20089;-74
2023/09/28 11:06:41;;;;;;;19.23;5.80;;;20.50;99.90;;;;;;4970837;28;20038;-74
2023/09/28 11:09:09;;;;;;;27.02;5.75;;;20.40;99.90;;;;;;4954280;28;20405;-74
2023/09/28 11:11:37;;;;;;;20.08;5.60;;;20.40;99.90;;;;;;4967421;28;20042;-74
2023/09/28 11:14:05;;;;;;;18.88;5.28;;;20.40;99.90;;;;;;4963946;28;20687;-74
2023/09/28 11:16:33;;;;;;;20.23;5.72;;;20.20;99.90;;;;;;4963143;28;20049;-75
2023/09/28 11:19:00;;;;;;;21.50;5.57;;;20.10;99.90;;;;;;4965155;28;20046;-74
2023/09/28 11:21:30;;;;;;;23.90;5.68;;;20.00;99.90;;;;;;4965012;28;20046;-74
2023/09/28 11:23:56;;;;;;;21.42;5.47;;;20.10;99.90;;;;;;4963357;28;20169;-74
2023/09/28 11:26:22;;;;;;;26.67;6.07;;;20.10;99.90;;;;;;4953358;28;20452;-74
2023/09/28 11:28:52;;;;;;;17.95;5.20;;;20.10;99.90;;;;;;4953273;28;20041;-74
2023/09/28 11:31:18;;;;;;;22.40;5.45;;;20.20;99.90;;;;;;4982065;28;20967;-74
2023/09/28 11:33:46;;;;;;;21.58;5.57;;;20.30;99.90;;;;;;4956343;28;20074;-74
2023/09/28 11:36:15;;;;;;;19.10;5.53;;;20.40;99.90;;;;;;4978664;28;20514;-74
2023/09/28 11:38:41;;;;;;;18.75;5.18;;;20.40;99.90;;;;;;4961524;28;20262;-74
2023/09/28 11:41:07;;;;;;;22.77;6.35;;;20.40;99.90;;;;;;4984452;28;20093;-74
2023/09/28 11:43:47;;;;;;;22.83;5.82;;;20.50;99.90;;;;;;4980012;28;20568;-74
2023/09/28 11:46:17;;;;;;;22.25;6.13;;;20.60;99.90;;;;;;4966476;28;20050;-74
2023/09/28 11:48:43;;;;;;;26.67;6.10;;;20.60;99.90;;;;;;4964815;28;20121;-74
2023/09/28 11:51:09;;;;;;;19.27;4.88;;;20.60;99.90;;;;;;4945825;28;20039;-74
2023/09/28 11:53:40;;;;;;;19.90;5.57;;;20.70;99.90;;;;;;4957350;28;20049;-74
2023/09/28 11:56:06;;;;;;;17.95;4.97;;;20.60;99.90;;;;;;4966464;28;20046;-74
2023/09/28 11:58:34;;;;;;;17.85;5.68;;;20.70;99.90;;;;;;4945949;28;20185;-74
2023/09/28 12:00:59;;;;;;;19.55;5.22;;;20.70;99.90;;;;;;4962051;28;20042;-74
2023/09/28 12:03:26;;;;;;;21.58;5.32;;;20.70;99.90;;;;;;5010630;28;20200;-74
2023/09/28 12:05:52;;;;;;;23.40;5.57;;;20.80;99.90;;;;;;4982402;28;20042;-74
2023/09/28 12:08:17;;;;;;;19.95;5.07;;;20.80;99.90;;;;;;4975210;28;20047;-74
2023/09/28 12:10:43;;;;;;;19.52;5.05;;;20.80;99.90;;;;;;4975090;28;20034;-74
2023/09/28 12:13:10;;;;;;;17.38;5.05;;;20.70;99.90;;;;;;4978510;28;20543;-74
2023/09/28 12:15:37;;;;;;;16.83;6.05;;;20.80;99.90;;;;;;4983751;28;20114;-74
2023/09/28 12:18:04;;;;;;;18.85;5.15;;;20.80;99.90;;;;;;4979169;28;20046;-74
2023/09/28 12:20:31;;;;;;;18.75;5.05;;;20.80;99.90;;;;;;4991217;28;20034;-74
2023/09/28 12:22:56;;;;;;;22.75;5.75;;;20.80;99.90;;;;;;4961643;28;20038;-74
2023/09/28 12:25:23;;;;;;;23.25;5.30;;;20.90;99.90;;;;;;4984397;28;20104;-74
2023/09/28 12:27:50;;;;;;;21.75;5.68;;;20.90;99.90;;;;;;4966533;28;20093;-74
2023/09/28 12:30:21;;;;;;;20.52;5.20;;;21.00;99.90;;;;;;4956399;28;20057;-74
2023/09/28 12:32:48;;;;;;;19.40;5.20;;;21.00;99.90;;;;;;4986849;28;20045;-74
2023/09/28 12:35:14;;;;;;;19.23;5.72;;;21.00;99.90;;;;;;4962944;28;20289;-74
2023/09/28 12:37:39;;;;;;;17.50;5.40;;;21.00;99.90;;;;;;5008171;28;20440;-74